Time;durP1;ratioP1;P1;durP2;ratioP2;P2;SDS_P1;SDS_P2;PMS_P1;PMS_P2;Temp;Humidity;BMP_temperature;BMP_pressure;BME280_temperature;BME280_humidity;BME280_pressure;Samples;Min_cycle;Max_cycle;Signal;HPM_P1;HPM_P2
2022/06/17 00:01:59;;;;;;;4.83;3.67;;;;;;;16.61;55.00;99509.58;1741440;82;20996;-42
2022/06/17 00:04:26;;;;;;;6.97;4.35;;;;;;;16.61;54.84;99510.37;1741356;82;21027;-42
2022/06/17 00:06:57;;;;;;;5.90;3.50;;;;;;;16.62;54.62;99509.78;1741277;82;21145;-41
2022/06/17 00:09:25;;;;;;;8.03;3.85;;;;;;;16.62;55.32;99507.83;1741434;82;20939;-42
2022/06/17 00:11:53;;;;;;;5.25;3.87;;;;;;;16.62;56.04;99507.05;1741540;82;21045;-42
2022/06/17 00:14:25;;;;;;;6.28;3.62;;;;;;;16.61;56.42;99511.73;1741377;82;21031;-42
2022/06/17 00:16:52;;;;;;;5.37;3.70;;;;;;;16.61;56.92;99511.73;1741566;82;21027;-41
2022/06/17 00:19:19;;;;;;;9.15;3.92;;;;;;;16.59;56.76;99505.89;1741389;82;21195;-41
2022/06/17 00:21:50;;;;;;;5.92;3.77;;;;;;;16.59;56.89;99511.95;1741518;82;20943;-42
2022/06/17 00:24:26;;;;;;;8.03;4.35;;;;;;;16.58;57.42;99504.88;1741496;82;20912;-42
2022/06/17 00:26:54;;;;;;;7.50;3.70;;;;;;;16.59;57.50;99503.74;1741506;82;21075;-42
2022/06/17 00:29:26;;;;;;;8.80;4.07;;;;;;;16.57;57.19;99504.09;1741803;82;21007;-42
2022/06/17 00:31:53;;;;;;;8.03;4.28;;;;;;;16.56;56.76;99501.75;1741621;82;22056;-42
2022/06/17 00:34:20;;;;;;;9.73;4.40;;;;;;;16.51;56.71;99502.35;1741395;82;20968;-42
2022/06/17 00:36:47;;;;;;;5.62;3.98;;;;;;;16.48;56.51;99502.37;1741397;82;21518;-42
2022/06/17 00:39:19;;;;;;;9.08;4.87;;;;;;;16.44;56.43;99497.50;1741440;82;21082;-41
2022/06/17 00:41:50;;;;;;;7.03;4.28;;;;;;;16.44;56.08;99498.87;1740572;82;21255;-42
2022/06/17 00:44:28;;;;;;;8.00;4.12;;;;;;;16.43;56.13;99491.24;1741498;82;21794;-42
2022/06/17 00:47:25;;;;;;;7.70;4.65;;;;;;;16.44;56.13;99492.03;1741232;82;20988;-42
2022/06/17 00:50:28;;;;;;;8.93;4.75;;;;;;;16.40;55.82;99502.98;1741395;82;20967;-42
2022/06/17 00:53:07;;;;;;;8.50;4.58;;;;;;;16.20;56.21;99498.33;1741329;82;20971;-41
2022/06/17 00:55:46;;;;;;;7.55;4.30;;;;;;;16.11;56.78;99506.16;1739983;82;21034;-42
2022/06/17 00:58:24;;;;;;;8.28;4.37;;;;;;;16.11;57.20;99500.11;1741197;82;21360;-41
2022/06/17 01:00:54;;;;;;;8.05;4.67;;;;;;;16.12;57.66;99492.08;1740797;82;20896;-42
2022/06/17 01:03:35;;;;;;;6.67;4.63;;;;;;;16.15;58.00;99495.41;1741594;82;20979;-42
2022/06/17 01:06:08;;;;;;;8.35;4.47;;;;;;;16.15;57.56;99491.30;1737341;82;20966;-42
2022/06/17 01:11:38;;;;;;;6.42;4.30;;;;;;;16.12;57.56;99481.75;1716932;82;23153;-42
2022/06/17 01:14:06;;;;;;;8.13;4.60;;;;;;;16.06;57.10;99475.31;1734417;82;23454;-42
2022/06/17 01:16:35;;;;;;;5.45;3.83;;;;;;;16.06;57.09;99485.47;1734850;82;21018;-42
2022/06/17 01:19:14;;;;;;;7.67;4.40;;;;;;;16.06;56.87;99483.52;1734304;82;20974;-42
2022/06/17 01:22:07;;;;;;;7.83;4.50;;;;;;;16.06;56.48;99478.62;1723442;82;21096;-42
2022/06/17 01:24:34;;;;;;;8.83;4.58;;;;;;;16.06;56.17;99479.41;1734496;82;21527;-42
2022/06/17 01:27:02;;;;;;;7.10;4.25;;;;;;;16.02;56.43;99481.34;1734690;82;21069;-41
2022/06/17 01:29:30;;;;;;;7.58;4.00;;;;;;;16.03;56.32;99473.92;1735001;82;21038;-42
2022/06/17 01:31:58;;;;;;;5.75;3.98;;;;;;;16.02;56.76;99475.87;1734879;82;20974;-41
2022/06/17 01:34:25;;;;;;;9.18;4.20;;;;;;;16.01;57.37;99472.19;1734747;82;21037;-42
2022/06/17 01:36:52;;;;;;;7.58;4.40;;;;;;;15.98;57.67;99475.10;1745532;81;21131;-42
2022/06/17 01:39:19;;;;;;;5.78;4.17;;;;;;;15.98;57.47;99475.69;1748540;82;20953;-41
2022/06/17 01:41:47;;;;;;;5.95;4.42;;;;;;;15.95;56.96;99471.80;1737459;82;20961;-41
2022/06/17 01:44:19;;;;;;;8.68;4.72;;;;;;;15.89;57.01;99475.31;1748511;82;20945;-42
2022/06/17 01:46:52;;;;;;;9.10;3.98;;;;;;;15.85;57.10;99472.58;1748673;82;21060;-41
2022/06/17 01:49:30;;;;;;;8.43;4.42;;;;;;;15.84;57.21;99475.12;1748403;82;21218;-42
2022/06/17 01:52:08;;;;;;;8.60;4.83;;;;;;;15.79;57.04;99483.71;1748360;82;21071;-41
2022/06/17 01:54:39;;;;;;;8.00;4.58;;;;;;;15.74;56.62;99477.27;1747919;82;21028;-42
2022/06/17 01:57:08;;;;;;;6.47;4.28;;;;;;;15.72;56.90;99474.16;1731324;82;20933;-41
2022/06/17 01:59:50;;;;;;;7.03;5.00;;;;;;;15.70;57.25;99476.48;1748803;82;21025;-42
2022/06/17 02:02:20;;;;;;;7.45;4.62;;;;;;;15.67;57.23;99473.19;1748805;81;20972;-41
2022/06/17 02:04:57;;;;;;;8.10;4.70;;;;;;;15.67;57.27;99476.50;1748429;82;20961;-41
2022/06/17 02:07:32;;;;;;;10.00;4.95;;;;;;;15.68;57.03;99472.59;1748690;82;21017;-41
2022/06/17 02:09:59;;;;;;;6.97;3.90;;;;;;;15.68;56.91;99469.28;1748517;82;21025;-42
2022/06/17 02:12:28;;;;;;;8.38;4.20;;;;;;;15.68;57.10;99467.92;1721451;82;21072;-41
2022/06/17 02:14:58;;;;;;;8.48;5.05;;;;;;;15.69;57.04;99462.63;1747859;82;20972;-42
2022/06/17 02:17:32;;;;;;;9.48;4.72;;;;;;;15.69;57.11;99465.94;1725218;82;21017;-41
2022/06/17 02:20:02;;;;;;;9.30;4.30;;;;;;;15.68;57.19;99462.45;1745837;82;21029;-42
2022/06/17 02:22:32;;;;;;;6.55;4.28;;;;;;;15.69;57.67;99467.30;1748640;82;21579;-42
2022/06/17 02:25:03;;;;;;;7.78;4.55;;;;;;;15.70;58.81;99464.77;1748434;82;21028;-42
2022/06/17 02:27:32;;;;;;;8.33;4.83;;;;;;;15.59;59.29;99465.55;1748604;82;21135;-42
2022/06/17 02:30:01;;;;;;;7.97;4.27;;;;;;;15.49;59.10;99468.27;1748808;82;20972;-42
2022/06/17 02:32:32;;;;;;;12.15;4.50;;;;;;;15.37;59.34;99459.08;1748737;82;21025;-41
2022/06/17 02:35:07;;;;;;;7.40;4.03;;;;;;;15.35;59.60;99462.19;1748654;82;20945;-41
2022/06/17 02:37:35;;;;;;;13.95;4.58;;;;;;;15.42;59.67;99455.95;1739478;81;20993;-42
2022/06/17 02:40:05;;;;;;;7.42;4.25;;;;;;;15.55;59.78;99447.59;1756433;81;23157;-42
2022/06/17 02:42:37;;;;;;;5.37;4.17;;;;;;;15.65;59.45;99449.55;1729111;81;21005;-42
2022/06/17 02:45:13;;;;;;;8.53;4.67;;;;;;;15.75;59.50;99443.88;1756249;81;21017;-42
2022/06/17 02:47:42;;;;;;;8.13;4.08;;;;;;;15.84;59.47;99445.05;1756346;81;20964;-42
2022/06/17 02:50:26;;;;;;;7.35;4.03;;;;;;;15.92;59.67;99444.47;1756674;81;21020;-42
2022/06/17 02:52:54;;;;;;;5.37;4.40;;;;;;;16.01;59.74;99438.78;1756268;81;21096;-42
2022/06/17 02:55:28;;;;;;;9.85;4.08;;;;;;;16.11;59.87;99440.52;1728401;81;20969;-42
2022/06/17 02:58:06;;;;;;;8.70;4.55;;;;;;;16.19;59.26;99438.73;1756221;81;21016;-42
2022/06/17 03:00:35;;;;;;;6.33;3.37;;;;;;;16.26;59.00;99440.10;1728118;81;21534;-42
2022/06/17 03:03:05;;;;;;;6.42;4.12;;;;;;;16.32;58.97;99439.08;1756479;81;21518;-42
2022/06/17 03:05:35;;;;;;;9.50;4.10;;;;;;;16.36;58.71;99433.03;1756623;81;21090;-42
2022/06/17 03:08:06;;;;;;;5.90;3.77;;;;;;;16.43;58.94;99430.26;1728834;81;21040;-42
2022/06/17 03:10:37;;;;;;;7.97;4.20;;;;;;;16.48;58.79;99439.42;1756169;81;22178;-41
2022/06/17 03:13:10;;;;;;;6.92;4.12;;;;;;;16.52;59.07;99436.09;1756387;81;21538;-42
2022/06/17 03:15:39;;;;;;;8.85;4.20;;;;;;;16.55;58.88;99429.84;1755265;81;21535;-42
2022/06/17 03:18:06;;;;;;;8.05;4.05;;;;;;;16.60;58.88;99436.30;1756466;81;21256;-42
2022/06/17 03:20:34;;;;;;;7.65;4.78;;;;;;;16.65;59.33;99433.14;1756358;81;20905;-42
2022/06/17 03:23:07;;;;;;;6.58;4.53;;;;;;;16.70;59.21;99439.55;1756279;81;21024;-42
2022/06/17 03:25:51;;;;;;;9.20;4.67;;;;;;;16.73;59.09;99438.77;1756193;81;21590;-42
2022/06/17 03:28:23;;;;;;;8.98;4.72;;;;;;;16.78;59.07;99436.20;1756275;81;21006;-42
2022/06/17 03:31:10;;;;;;;8.20;4.17;;;;;;;16.82;58.93;99437.74;1756120;81;21000;-42
2022/06/17 03:33:43;;;;;;;7.30;4.17;;;;;;;16.85;59.92;99439.67;1755203;81;21266;-42
2022/06/17 03:36:18;;;;;;;5.53;3.95;;;;;;;16.89;60.42;99447.27;1719292;83;21064;-42
2022/06/17 03:38:49;;;;;;;6.47;3.80;;;;;;;16.94;60.41;99443.37;1686565;83;21084;-42
2022/06/17 03:41:27;;;;;;;6.10;4.10;;;;;;;16.93;60.27;99439.84;1715096;83;21087;-42
2022/06/17 03:44:19;;;;;;;6.95;3.80;;;;;;;16.97;59.83;99443.14;1714969;83;21210;-42
2022/06/17 03:46:59;;;;;;;7.40;4.28;;;;;;;16.97;58.38;99442.55;1750881;82;21666;-42
2022/06/17 03:49:34;;;;;;;6.90;4.25;;;;;;;16.94;56.97;99438.64;1714378;83;20980;-42
2022/06/17 03:52:08;;;;;;;5.62;4.45;;;;;;;16.87;57.49;99440.06;1715135;83;21591;-42
2022/06/17 03:54:35;;;;;;;10.65;4.55;;;;;;;16.85;58.57;99436.94;1714717;83;21046;-42
2022/06/17 03:57:05;;;;;;;5.92;4.45;;;;;;;16.89;59.07;99432.22;1715055;83;21244;-42
2022/06/17 03:59:34;;;;;;;8.98;4.40;;;;;;;16.92;58.85;99434.17;1731458;81;20993;-42
2022/06/17 04:02:09;;;;;;;5.83;3.87;;;;;;;16.97;58.57;99430.23;1751183;82;21040;-42
2022/06/17 04:04:41;;;;;;;9.15;4.10;;;;;;;17.00;58.42;99427.27;1714998;83;21036;-42
2022/06/17 04:07:09;;;;;;;7.42;4.90;;;;;;;17.03;58.58;99426.48;1715102;83;21267;-42
2022/06/17 04:09:41;;;;;;;8.45;4.62;;;;;;;17.06;58.54;99431.15;1715386;83;20976;-42
2022/06/17 04:12:22;;;;;;;11.75;4.65;;;;;;;17.07;58.72;99425.28;1714863;83;20944;-42
2022/06/17 04:15:14;;;;;;;8.80;4.53;;;;;;;17.15;59.05;99428.73;1711946;83;21044;-42
2022/06/17 04:17:48;;;;;;;6.65;4.78;;;;;;;17.20;58.81;99429.09;1646654;83;21564;-42
2022/06/17 04:20:43;;;;;;;10.70;5.22;;;;;;;17.26;58.94;99430.83;1714932;83;21555;-42
2022/06/17 04:23:18;;;;;;;9.50;5.12;;;;;;;17.33;59.11;99424.69;1714836;83;21816;-42
2022/06/17 04:26:11;;;;;;;7.85;4.90;;;;;;;17.39;59.21;99423.67;1750557;81;21021;-42
2022/06/17 04:28:58;;;;;;;10.25;4.90;;;;;;;17.44;59.16;99423.24;1714691;83;21549;-42
2022/06/17 04:31:29;;;;;;;9.00;4.35;;;;;;;17.51;59.06;99424.58;1715019;83;21005;-42
2022/06/17 04:34:08;;;;;;;8.88;5.30;;;;;;;17.64;59.02;99427.03;1714315;83;21547;-42
2022/06/17 04:36:47;;;;;;;9.50;4.83;;;;;;;17.80;58.52;99423.77;1711220;83;21329;-42
2022/06/17 04:39:45;;;;;;;7.08;5.53;;;;;;;17.93;58.05;99422.65;1707428;84;21503;-42
2022/06/17 04:42:21;;;;;;;8.25;5.65;;;;;;;18.03;57.62;99424.51;1679822;83;20934;-42
2022/06/17 04:44:53;;;;;;;9.83;5.78;;;;;;;18.19;57.42;99419.25;1707146;83;21617;-42
2022/06/17 04:47:21;;;;;;;8.10;5.70;;;;;;;18.32;56.47;99419.49;1707125;84;21005;-42
2022/06/17 04:49:59;;;;;;;8.80;5.67;;;;;;;18.39;56.10;99415.30;1742844;81;21170;-42
2022/06/17 04:52:41;;;;;;;10.93;5.75;;;;;;;18.50;55.43;99418.09;1706738;83;21690;-42
2022/06/17 04:55:34;;;;;;;11.70;5.70;;;;;;;18.63;55.41;99419.15;1742889;81;21055;-42
2022/06/17 04:58:17;;;;;;;8.95;4.80;;;;;;;18.79;55.02;99419.13;1731247;82;21069;-44
2022/06/17 05:00:49;;;;;;;6.58;4.12;;;;;;;18.88;53.36;99412.55;1707293;83;21080;-44
2022/06/17 05:03:18;;;;;;;6.95;4.25;;;;;;;18.96;53.02;99411.25;1742859;81;21957;-45
2022/06/17 05:05:54;;;;;;;7.85;4.08;;;;;;;19.07;53.64;99409.88;1705898;83;21008;-45
2022/06/17 05:08:32;;;;;;;7.42;4.00;;;;;;;19.23;53.61;99412.01;1706959;84;21016;-44
2022/06/17 05:11:05;;;;;;;7.03;3.70;;;;;;;19.36;52.68;99408.88;1707225;84;21603;-44
2022/06/17 05:13:46;;;;;;;7.00;3.70;;;;;;;19.49;52.38;99407.12;1705506;84;21009;-44
2022/06/17 05:16:16;;;;;;;6.95;3.60;;;;;;;19.63;51.72;99402.56;1733003;82;21083;-45
2022/06/17 05:18:43;;;;;;;7.00;4.00;;;;;;;19.73;51.26;99409.27;1742784;82;21013;-44
2022/06/17 05:21:23;;;;;;;6.53;4.30;;;;;;;19.80;50.81;99405.63;1707326;83;20944;-44
2022/06/17 05:23:55;;;;;;;7.75;3.95;;;;;;;19.86;51.42;99403.92;1743044;81;20945;-45
2022/06/17 05:26:23;;;;;;;8.75;3.87;;;;;;;19.90;51.41;99408.16;1743227;81;21566;-45
2022/06/17 05:28:50;;;;;;;6.67;4.35;;;;;;;19.99;51.30;99402.12;1742925;81;21190;-45
2022/06/17 05:31:21;;;;;;;5.28;3.83;;;;;;;20.10;50.71;99401.91;1742927;82;21108;-44
2022/06/17 05:33:50;;;;;;;5.12;4.03;;;;;;;20.18;50.81;99401.96;1686188;84;20946;-45
2022/06/17 05:36:18;;;;;;;5.40;4.12;;;;;;;20.27;50.50;99398.83;1707737;83;21045;-45
2022/06/17 05:38:46;;;;;;;5.28;4.17;;;;;;;20.31;50.07;99395.42;1715017;83;21079;-45
2022/06/17 05:41:19;;;;;;;6.03;3.55;;;;;;;20.38;50.04;99396.64;1715023;83;21153;-45
2022/06/17 05:43:48;;;;;;;7.03;3.98;;;;;;;20.44;50.28;99392.02;1714901;83;21072;-45
2022/06/17 05:46:17;;;;;;;;;;;;;;;20.47;50.39;99393.34;1752979;81;21065;-44
2022/06/17 05:48:49;;;;;;;6.55;4.20;;;;;;;20.51;50.62;99396.80;1749748;81;21631;-45
2022/06/17 05:51:36;;;;;;;5.85;3.65;;;;;;;20.51;50.09;99398.77;1750118;81;21053;-44
2022/06/17 05:54:05;;;;;;;5.72;3.80;;;;;;;20.60;49.98;99403.09;1747761;81;21312;-44
2022/06/17 05:56:35;;;;;;;5.60;3.35;;;;;;;20.66;49.34;99397.27;1741813;82;20958;-44
2022/06/17 05:59:02;;;;;;;4.90;3.42;;;;;;;20.75;48.33;99391.95;1741730;82;21311;-44
2022/06/17 06:01:29;;;;;;;7.47;3.27;;;;;;;20.85;47.90;99393.70;1742472;82;21592;-44
2022/06/17 06:03:56;;;;;;;8.08;3.27;;;;;;;20.93;46.86;99395.08;1742596;82;21089;-44
2022/06/17 06:06:24;;;;;;;4.67;3.50;;;;;;;21.01;46.56;99392.33;1737724;82;21229;-44
2022/06/17 06:08:53;;;;;;;5.70;3.00;;;;;;;21.08;46.50;99394.16;1712129;83;21596;-44
2022/06/17 06:11:20;;;;;;;6.70;3.15;;;;;;;21.13;45.45;99398.59;1712950;83;21036;-42
2022/06/17 06:13:48;;;;;;;7.03;3.42;;;;;;;21.18;45.62;99391.78;1712948;83;20985;-42
2022/06/17 06:16:16;;;;;;;7.72;3.15;;;;;;;21.25;45.40;99393.02;1713424;82;21534;-42
2022/06/17 06:18:47;;;;;;;4.95;3.15;;;;;;;21.35;45.49;99395.34;1712645;83;20977;-42
2022/06/17 06:21:19;;;;;;;8.40;3.30;;;;;;;21.46;45.71;99397.21;1711490;83;21084;-42
2022/06/17 06:23:47;;;;;;;4.90;2.92;;;;;;;21.53;45.10;99385.41;1712957;83;21089;-42
2022/06/17 06:26:20;;;;;;;5.03;3.20;;;;;;;21.61;45.60;99390.91;1714791;82;20941;-42
2022/06/17 06:28:49;;;;;;;5.12;2.80;;;;;;;21.71;45.88;99390.47;1708755;83;21041;-43
2022/06/17 06:31:36;;;;;;;9.03;3.00;;;;;;;21.83;44.83;99389.77;1711849;82;21161;-42
2022/06/17 06:34:21;;;;;;;4.80;2.77;;;;;;;21.91;45.27;99389.75;1712759;83;20965;-42
2022/06/17 06:36:51;;;;;;;4.87;2.90;;;;;;;22.01;44.33;99390.70;1717947;82;21246;-42
2022/06/17 06:39:19;;;;;;;4.90;3.17;;;;;;;22.11;45.02;99385.49;1748251;82;20997;-43
2022/06/17 06:41:47;;;;;;;7.70;2.70;;;;;;;22.27;44.09;99386.05;1748261;82;21096;-43
2022/06/17 06:44:15;;;;;;;3.15;2.27;;;;;;;22.39;43.37;99381.93;1748247;82;21129;-42
2022/06/17 06:47:01;;;;;;;5.45;2.50;;;;;;;22.47;42.74;99377.73;1748529;82;21065;-42
2022/06/17 06:52:29;;;;;;;4.00;2.47;;;;;;;22.70;41.65;99386.39;1845207;77;22527;-42
2022/06/17 06:54:57;;;;;;;4.42;2.58;;;;;;;22.75;42.30;99383.05;1794904;78;21019;-42
2022/06/17 06:57:26;;;;;;;7.00;2.90;;;;;;;22.85;42.03;99384.72;1819952;78;21569;-42
2022/06/17 06:59:53;;;;;;;9.08;2.87;;;;;;;22.91;41.94;99376.05;1787833;80;20956;-42
2022/06/17 07:02:20;;;;;;;5.67;2.58;;;;;;;23.04;41.54;99378.83;1788019;80;21679;-41
2022/06/17 07:04:48;;;;;;;4.55;2.60;;;;;;;23.19;40.77;99373.63;1787965;80;20944;-42
2022/06/17 07:07:15;;;;;;;5.15;2.25;;;;;;;23.31;40.45;99380.51;1804423;78;21478;-42
2022/06/17 07:09:42;;;;;;;3.72;2.12;;;;;;;23.42;39.55;99376.02;1824047;78;21128;-42
2022/06/17 07:12:10;;;;;;;6.47;2.62;;;;;;;23.48;39.59;99377.00;1823872;78;21502;-42
2022/06/17 07:14:37;;;;;;;3.50;2.50;;;;;;;23.55;39.06;99378.77;1824374;78;20952;-42
2022/06/17 07:17:05;;;;;;;3.25;2.05;;;;;;;23.62;39.11;99379.33;1820560;78;20968;-42
2022/06/17 07:19:33;;;;;;;5.00;2.10;;;;;;;23.71;38.03;99383.56;1806711;78;21024;-42
2022/06/17 07:22:00;;;;;;;5.05;2.20;;;;;;;23.77;36.65;99383.13;1824054;78;21366;-42
2022/06/17 07:24:27;;;;;;;5.92;2.22;;;;;;;23.86;37.61;99380.30;1823985;78;20924;-42
2022/06/17 07:26:54;;;;;;;6.35;2.20;;;;;;;23.98;37.69;99383.61;1823932;78;21001;-42
2022/06/17 07:29:21;;;;;;;4.85;2.20;;;;;;;24.05;38.07;99381.38;1824152;78;20957;-42
2022/06/17 07:31:48;;;;;;;3.42;2.02;;;;;;;24.10;37.31;99384.96;1823844;78;21085;-42
2022/06/17 07:34:16;;;;;;;4.28;2.00;;;;;;;24.13;37.60;99381.89;1823738;78;21122;-42
2022/06/17 07:42:10;;;;;;;3.98;2.00;;;;;;;24.42;36.85;99381.65;1824046;78;21027;-42
2022/06/17 07:44:37;;;;;;;4.08;2.27;;;;;;;24.54;35.86;99387.13;1823995;78;20965;-42
2022/06/17 07:47:04;;;;;;;4.60;1.90;;;;;;;24.66;36.18;99379.94;1824202;78;21933;-42
2022/06/17 07:49:32;;;;;;;2.70;1.90;;;;;;;24.77;36.52;99385.86;1800128;78;21003;-42
2022/06/17 07:51:59;;;;;;;3.67;1.95;;;;;;;24.89;35.86;99383.63;1777495;80;20921;-42
2022/06/17 07:54:27;;;;;;;4.97;2.15;;;;;;;24.96;35.79;99374.27;1771149;81;21547;-42
2022/06/17 07:56:54;;;;;;;3.85;2.10;;;;;;;25.03;35.21;99380.89;1770856;81;21020;-42
2022/06/17 07:59:22;;;;;;;3.47;2.00;;;;;;;25.13;35.18;99378.31;1770763;81;23148;-42
2022/06/17 08:01:48;;;;;;;2.58;1.87;;;;;;;25.30;34.85;99373.29;1770792;81;21004;-42
2022/06/17 08:04:17;;;;;;;3.67;1.87;;;;;;;25.47;34.80;99372.55;1771293;79;20977;-42
2022/06/17 08:06:50;;;;;;;3.37;1.92;;;;;;;25.65;34.03;99371.07;1798434;79;21012;-42
2022/06/17 08:09:17;;;;;;;4.30;1.98;;;;;;;25.77;33.67;99365.98;1770529;79;21000;-42
2022/06/17 08:11:47;;;;;;;2.87;1.85;;;;;;;25.81;33.28;99365.20;1789452;79;20926;-42
2022/06/17 08:14:15;;;;;;;3.43;1.77;;;;;;;25.86;34.03;99367.36;1802166;79;20942;-42
2022/06/17 08:16:43;;;;;;;8.00;2.58;;;;;;;25.93;34.32;99373.40;1802211;79;20965;-42
2022/06/17 08:19:11;;;;;;;3.90;2.20;;;;;;;25.92;33.24;99372.47;1801931;79;21041;-45
2022/06/17 08:21:38;;;;;;;4.45;2.47;;;;;;;25.75;33.36;99369.85;1802034;79;21582;-44
2022/06/17 08:24:07;;;;;;;4.83;2.17;;;;;;;25.57;33.55;99366.42;1801916;79;21125;-44
2022/06/17 08:26:35;;;;;;;3.60;2.00;;;;;;;25.40;33.57;99371.47;1802062;79;20973;-44
2022/06/17 08:29:02;;;;;;;4.72;2.00;;;;;;;25.19;33.86;99366.00;1801903;79;21547;-44
2022/06/17 08:31:29;;;;;;;2.42;1.85;;;;;;;25.06;34.72;99375.84;1801912;79;21017;-44
2022/06/17 08:33:56;;;;;;;4.47;2.00;;;;;;;24.88;34.41;99366.84;1801811;79;21057;-44
2022/06/17 08:36:25;;;;;;;4.10;1.87;;;;;;;24.69;34.12;99371.48;1801793;79;21038;-44
2022/06/17 08:39:06;;;;;;;2.02;1.55;;;;;;;24.54;34.30;99369.12;1802467;79;20914;-44
2022/06/17 08:41:37;;;;;;;4.03;1.80;;;;;;;24.46;34.16;99369.20;1802053;79;20971;-44
2022/06/17 08:44:32;;;;;;;2.30;1.60;;;;;;;24.44;34.25;99373.06;1802253;79;21005;-45
2022/06/17 08:47:11;;;;;;;6.45;1.55;;;;;;;24.48;34.51;99373.70;1801992;79;21084;-45
2022/06/17 08:50:16;;;;;;;3.33;1.55;;;;;;;24.52;35.19;99373.55;1801980;79;23161;-45
2022/06/17 08:53:04;;;;;;;3.58;1.82;;;;;;;24.61;34.33;99373.59;1810606;79;20983;-45
2022/06/17 08:55:48;;;;;;;2.95;1.50;;;;;;;24.58;33.75;99371.14;1811735;79;21456;-45
2022/06/17 08:58:36;;;;;;;3.22;1.45;;;;;;;24.54;33.51;99364.96;1794472;79;20917;-45
2022/06/17 09:01:44;;;;;;;2.90;1.42;;;;;;;24.49;34.15;99370.31;1812278;79;21052;-45
2022/06/17 09:04:33;;;;;;;4.55;1.60;;;;;;;24.47;33.64;99365.22;1812242;79;23163;-44
2022/06/17 09:07:16;;;;;;;4.08;1.47;;;;;;;24.42;33.79;99369.95;1783593;79;20953;-44
2022/06/17 09:10:11;;;;;;;2.60;1.50;;;;;;;24.41;33.76;99369.79;1748071;82;21571;-45
2022/06/17 09:13:04;;;;;;;7.40;1.62;;;;;;;24.42;33.88;99364.41;1780187;80;21036;-44
2022/06/17 09:15:54;;;;;;;3.22;1.47;;;;;;;24.49;34.46;99371.09;1779878;80;21020;-44
2022/06/17 09:18:30;;;;;;;10.58;2.83;;;;;;;24.58;34.76;99368.37;1803780;79;21511;-44
2022/06/17 09:21:02;;;;;;;3.70;2.35;;;;;;;24.75;34.48;99360.58;1811011;79;21027;-44
2022/06/17 09:23:32;;;;;;;5.62;1.90;;;;;;;24.98;35.02;99358.69;1803344;79;21000;-44
2022/06/17 09:25:59;;;;;;;3.77;1.60;;;;;;;25.24;34.59;99361.24;1811117;79;21854;-44
2022/06/17 09:28:37;;;;;;;9.60;4.15;;;;;;;25.36;33.69;99358.36;1812300;79;21068;-44
2022/06/17 09:31:13;;;;;;;4.45;2.40;;;;;;;25.51;34.47;99360.67;1812429;79;21232;-44
2022/06/17 09:33:55;;;;;;;4.83;1.95;;;;;;;25.68;34.07;99358.42;1800606;79;21009;-42
2022/06/17 09:36:39;;;;;;;3.25;1.98;;;;;;;25.86;33.20;99357.64;1773597;80;20973;-42
2022/06/17 09:39:23;;;;;;;3.20;1.70;;;;;;;26.13;32.77;99350.70;1776256;79;21535;-42
2022/06/17 09:42:01;;;;;;;3.08;1.62;;;;;;;26.44;32.63;99353.89;1800928;79;21013;-42
2022/06/17 09:44:51;;;;;;;2.58;1.70;;;;;;;26.61;30.26;99350.92;1811955;79;21321;-42
2022/06/17 09:47:34;;;;;;;2.55;1.70;;;;;;;26.50;31.38;99348.63;1811768;79;21535;-42
2022/06/17 09:50:16;;;;;;;31.17;4.55;;;;;;;26.50;31.60;99356.97;1811071;79;21336;-42
2022/06/17 09:52:54;;;;;;;2.90;1.50;;;;;;;26.43;30.95;99352.38;1790464;79;21001;-42
2022/06/17 09:55:32;;;;;;;4.20;2.00;;;;;;;26.32;31.56;99352.23;1780636;80;20996;-42
2022/06/17 09:58:07;;;;;;;3.25;1.70;;;;;;;26.21;30.00;99350.55;1781757;80;21188;-42
2022/06/17 10:00:44;;;;;;;2.22;1.57;;;;;;;26.07;31.09;99358.72;1780448;80;21589;-42
2022/06/17 10:03:31;;;;;;;2.20;1.40;;;;;;;26.01;30.62;99354.41;1779666;80;20973;-42
2022/06/17 10:06:25;;;;;;;3.52;1.62;;;;;;;26.03;31.40;99352.55;1779556;80;21084;-42
2022/06/17 10:09:28;;;;;;;2.33;1.62;;;;;;;26.05;30.44;99355.01;1779009;80;21009;-42
2022/06/17 10:12:09;;;;;;;3.58;1.70;;;;;;;26.11;30.33;99355.16;1780841;80;21142;-42
2022/06/17 10:15:08;;;;;;;3.30;1.70;;;;;;;26.15;30.57;99348.20;1787461;79;21028;-42
2022/06/17 10:20:58;;;;;;;5.62;2.10;;;;;;;26.43;31.84;99345.42;1716472;83;21394;-42
2022/06/17 10:23:51;;;;;;;2.55;1.82;;;;;;;26.54;31.85;99349.23;1760947;81;21094;-42
2022/06/17 10:26:46;;;;;;;4.40;2.22;;;;;;;26.58;32.22;99351.84;1748601;82;21127;-42
2022/06/17 10:30:00;;;;;;;6.20;2.17;;;;;;;26.64;31.63;99352.14;1748345;82;21476;-42
2022/06/17 10:32:27;;;;;;;4.70;1.80;;;;;;;26.71;32.27;99352.44;1712559;83;20957;-42
2022/06/17 10:34:59;;;;;;;4.45;2.10;;;;;;;26.80;32.19;99337.10;1778711;80;21554;-42
2022/06/17 10:37:28;;;;;;;2.90;1.80;;;;;;;26.98;32.20;99339.05;1779440;80;21083;-42
2022/06/17 10:39:55;;;;;;;3.10;1.90;;;;;;;27.11;31.13;99339.62;1779619;80;21102;-42
2022/06/17 10:42:23;;;;;;;4.60;1.98;;;;;;;27.18;31.16;99340.64;1779577;80;21033;-42
2022/06/17 10:44:53;;;;;;;6.62;2.22;;;;;;;27.25;30.67;99340.30;1748181;80;21504;-42
2022/06/17 10:47:56;;;;;;;3.70;1.70;;;;;;;27.28;31.14;99339.97;1779657;80;21076;-42
2022/06/17 10:50:27;;;;;;;4.58;1.80;;;;;;;27.27;30.67;99339.81;1779505;80;21080;-42
2022/06/17 10:53:20;;;;;;;4.00;1.77;;;;;;;27.17;30.31;99339.09;1800501;79;21275;-42
2022/06/17 10:55:55;;;;;;;3.50;2.00;;;;;;;27.10;30.78;99336.06;1812114;79;20878;-42
2022/06/17 10:58:29;;;;;;;3.50;1.85;;;;;;;26.98;30.74;99337.04;1809402;79;21818;-42
2022/06/17 11:01:00;;;;;;;4.08;2.08;;;;;;;26.93;30.88;99340.47;1811736;79;21000;-42
2022/06/17 11:03:35;;;;;;;3.80;1.80;;;;;;;26.94;31.33;99330.87;1812010;79;21009;-42
2022/06/17 11:06:13;;;;;;;2.92;1.72;;;;;;;26.95;31.13;99336.60;1794658;79;23088;-42
2022/06/17 11:09:02;;;;;;;3.67;1.60;;;;;;;26.97;30.58;99344.45;1811747;79;20930;-42
2022/06/17 11:14:39;;;;;;;2.58;1.60;;;;;;;26.92;31.09;99334.74;1807025;79;21016;-44
2022/06/17 11:17:30;;;;;;;2.00;1.57;;;;;;;26.87;30.81;99338.81;1811921;79;21542;-44
2022/06/17 11:20:01;;;;;;;2.62;1.42;;;;;;;26.87;31.05;99333.25;1808597;79;23117;-45
2022/06/17 11:22:40;;;;;;;2.90;1.57;;;;;;;26.89;31.50;99324.56;1810206;79;20984;-44
2022/06/17 11:25:33;;;;;;;2.42;1.50;;;;;;;26.92;31.15;99321.45;1811798;79;20953;-45
2022/06/17 11:28:24;;;;;;;4.35;1.70;;;;;;;26.92;30.69;99325.63;1798376;79;20921;-45
2022/06/17 11:31:01;;;;;;;3.83;2.05;;;;;;;26.79;30.22;99334.94;1812065;79;21065;-45
2022/06/17 11:33:40;;;;;;;4.15;2.00;;;;;;;26.61;30.77;99331.45;1811973;79;21087;-44
2022/06/17 11:36:24;;;;;;;2.52;1.60;;;;;;;26.49;30.92;99329.02;1799332;79;21000;-44
2022/06/17 11:38:52;;;;;;;4.85;1.60;;;;;;;26.39;31.26;99326.88;1773431;80;21044;-45
2022/06/17 11:41:29;;;;;;;2.35;1.47;;;;;;;26.27;31.21;99327.85;1773358;80;21021;-45
2022/06/17 11:44:07;;;;;;;2.25;1.60;;;;;;;26.16;31.10;99321.20;1768623;80;21060;-45
2022/06/17 11:46:36;;;;;;;3.83;1.80;;;;;;;26.03;31.73;99317.22;1790149;79;21180;-44
2022/06/17 11:49:15;;;;;;;3.25;2.05;;;;;;;25.91;31.35;99315.36;1762519;79;21567;-44
2022/06/17 11:52:00;;;;;;;4.12;2.45;;;;;;;25.79;31.32;99314.92;1811996;78;21531;-45
2022/06/17 11:54:38;;;;;;;3.75;2.27;;;;;;;25.70;31.62;99310.14;1801525;79;21002;-45
2022/06/17 11:57:25;;;;;;;4.62;1.95;;;;;;;25.65;31.58;99301.66;1795408;79;21048;-44
2022/06/17 11:59:56;;;;;;;5.60;2.00;;;;;;;25.60;31.92;99292.55;1800417;79;21120;-45
2022/06/17 12:02:24;;;;;;;23.57;6.10;;;;;;;25.59;32.23;99295.95;1801993;79;21170;-45
2022/06/17 12:04:59;;;;;;;25.05;7.47;;;;;;;25.63;32.41;99300.72;1801940;79;20925;-45
2022/06/17 12:07:59;;;;;;;17.30;5.25;;;;;;;25.65;32.06;99304.44;1788127;79;20952;-45
2022/06/17 12:10:32;;;;;;;;;;;;;;;25.65;31.47;99306.59;1786851;80;21008;-45
2022/06/17 12:13:39;;;;;;;3.02;1.45;;;;;;;25.63;31.65;99304.89;1784881;80;20213;-44
2022/06/17 12:16:23;;;;;;;4.53;2.10;;;;;;;25.63;32.38;99305.50;1799634;79;21008;-44
2022/06/17 12:18:56;;;;;;;6.87;2.25;;;;;;;25.70;32.00;99302.43;1801878;79;20949;-45
2022/06/17 12:21:57;;;;;;;2.37;1.70;;;;;;;25.74;33.44;99314.15;1801720;79;21487;-45
2022/06/17 12:24:55;;;;;;;4.97;1.85;;;;;;;25.68;34.47;99314.61;1801603;79;21021;-45
2022/06/17 12:27:27;;;;;;;6.00;1.80;;;;;;;25.45;35.16;99311.80;1788541;79;21064;-45
2022/06/17 12:30:05;;;;;;;5.65;1.50;;;;;;;25.27;35.87;99308.36;1781621;80;21837;-44